createdAt,value
2022-10-30T00:04:55.175Z,1016.43
2022-10-30T00:19:55.792Z,1016.34
2022-10-30T00:34:55.428Z,1016.20
2022-10-30T00:49:55.494Z,1016.30
2022-10-30T01:04:56.179Z,1016.08
2022-10-30T01:19:56.779Z,1015.99
2022-10-30T01:34:57.314Z,1015.91
2022-10-30T01:49:57.422Z,1015.80
2022-10-30T02:04:57.038Z,1015.59
2022-10-30T02:19:57.141Z,1015.58
2022-10-30T02:34:57.241Z,1015.49
2022-10-30T02:49:57.319Z,1015.36
2022-10-30T03:04:57.955Z,1015.37
2022-10-30T03:19:58.182Z,1015.31
2022-10-30T03:34:59.273Z,1015.23
2022-10-30T03:49:58.864Z,1015.45
2022-10-30T04:04:59.974Z,1015.60
2022-10-30T04:20:00.063Z,1015.78
2022-10-30T04:34:59.663Z,1015.44
2022-10-30T04:50:00.299Z,1015.38
2022-10-30T05:05:01.889Z,1014.96
2022-10-30T05:20:02.466Z,1014.79
2022-10-30T05:35:03.089Z,1015.02
2022-10-30T05:50:03.666Z,1015.27
2022-10-30T06:05:04.299Z,1014.86
2022-10-30T06:20:04.912Z,1014.78
2022-10-30T06:35:05.107Z,1014.57
2022-10-30T06:50:05.261Z,1015.04
2022-10-30T07:05:05.873Z,1015.28
2022-10-30T07:20:05.592Z,1015.39
2022-10-30T07:35:07.453Z,1015.36
2022-10-30T07:50:07.245Z,1015.49
2022-10-30T08:05:07.419Z,1015.53
2022-10-30T08:20:07.494Z,1015.58
2022-10-30T08:35:07.603Z,1015.64
2022-10-30T08:50:07.732Z,1015.64
2022-10-30T09:05:07.821Z,1015.51
2022-10-30T09:20:08.123Z,1015.50
2022-10-30T09:35:08.523Z,1015.37
2022-10-30T09:50:08.569Z,1015.40
2022-10-30T10:05:09.112Z,1015.61
2022-10-30T10:20:08.910Z,1015.52
2022-10-30T10:35:08.983Z,1015.64
2022-10-30T10:50:09.061Z,1015.34
2022-10-30T11:05:09.247Z,1015.32
2022-10-30T11:20:09.315Z,1015.22
2022-10-30T11:35:09.402Z,1015.23
2022-10-30T11:50:09.477Z,1015.33
2022-10-30T12:05:09.574Z,1015.41
2022-10-30T12:20:09.705Z,1015.31
2022-10-30T12:35:09.769Z,1015.28
2022-10-30T12:50:09.856Z,1015.35
2022-10-30T13:05:09.966Z,1015.18
2022-10-30T13:20:10.039Z,1015.16
2022-10-30T13:35:10.132Z,1015.09
2022-10-30T13:50:10.348Z,1015.07
2022-10-30T14:05:10.309Z,1015.05
2022-10-30T14:20:14.300Z,1015.08
2022-10-30T14:35:14.482Z,1015.06
2022-10-30T14:50:14.579Z,1015.17
2022-10-30T15:05:14.706Z,1015.08
2022-10-30T15:20:14.779Z,1015.14
2022-10-30T15:35:14.892Z,1015.21
2022-10-30T15:50:14.986Z,1015.08
2022-10-30T16:05:15.625Z,1015.08
2022-10-30T16:20:15.194Z,1015.04
2022-10-30T16:35:15.312Z,1015.06
2022-10-30T16:50:16.454Z,1015.16
2022-10-30T17:05:17.014Z,1015.25
2022-10-30T17:20:17.172Z,1015.34
2022-10-30T17:35:17.250Z,1015.37
2022-10-30T17:50:17.387Z,1015.43
2022-10-30T18:05:19.091Z,1015.48
2022-10-30T18:20:19.431Z,1015.48
2022-10-30T18:35:19.542Z,1015.52
2022-10-30T18:50:20.135Z,1015.49
2022-10-30T19:05:19.727Z,1015.55
2022-10-30T19:20:22.198Z,1015.48
2022-10-30T19:35:25.390Z,1015.40
2022-10-30T19:50:25.486Z,1015.37
2022-10-30T20:05:26.205Z,1015.34
2022-10-30T20:20:25.908Z,1015.41
2022-10-30T20:35:26.410Z,1015.48
2022-10-30T20:50:26.489Z,1015.56
2022-10-30T21:05:44.334Z,1015.54
2022-10-30T21:20:31.937Z,1015.47
2022-10-30T21:35:32.079Z,1015.42
2022-10-30T21:50:32.393Z,1015.56
2022-10-30T22:05:32.344Z,1015.61
2022-10-30T22:20:33.449Z,1015.65
2022-10-30T22:35:34.072Z,1015.73
2022-10-30T22:50:33.713Z,1015.66
2022-10-30T23:05:34.314Z,1015.59
2022-10-30T23:20:33.906Z,1015.62
2022-10-30T23:35:34.533Z,1015.71
2022-10-30T23:50:34.635Z,1015.67
